logo
App data

Zombie Apocalypse: Escape The Undead City

Battle through Zombie Apocalypse horror! Which is better - shotgun, pistol or AK-47? Blast their rotten, infected brains out and choose your favorite! Scavenge weapons and armor to pimp out your souped up zombie slaying car - then plow down the man-eating hordes to Escape the Undead City, and try not to get your guts torn out!!!
Store | Hub | SteamDB | Site
Developer: Anarchy Enterprises Publisher: Anarchy Enterprises
Genre: Action, Indie
Languages: English
Tags: Action (24), Indie (23), Zombies (19), Shoot 'Em Up (11), Singleplayer (11), Fast-Paced (9), Shooter (9)
Category: Single-player, Steam Trading Cards
Release date: Nov 25, 2013
Price: $0.99
Score rank: 5% Userscore: 37% Old userscore: 31%
Owners: 0 .. 20,000
Followers: 130
Playtime total: 02:28 (average) 02:37 (median)

Steam Spy is still in beta, so expect major bugs.

Owners data:

Access restricted.

This feature is only available to users with special access rights. Sorry.

If you want to proceed, you need to register or log in first and then back Steam Spy on Patreon. Look for Indie or Pro pledge.

Don't forget to use the same email as on Steam Spy!

Audience in 2 weeks:

Access restricted.

This feature is only available to users with special access rights. Sorry.

If you want to proceed, you need to register or log in first and then back Steam Spy on Patreon. Look for Indie or Pro pledge.

Don't forget to use the same email as on Steam Spy!

Peak daily concurrent players:

CCU data courtesy of SteamDB. Used with permission.

Hourly concurrent players:

YouTube:

The views data is based on top 50 videos uploaded last week. Actual number of views might be more than the number shown.

The displayed number of videos uploaded yesterday is limited to 50, so if there were more videos uploaded, the number will still show 50.

If the game has commonly used word as its name (like "FEAR" or "Volume") its number of Youtube views might be wrong.

Games similar to this one:

# Game Release date
Price
Score rank
(Userscore / Metascore)
Owners
Players
Playtime (Median)
1 Little Big Adventure 2 Oct 20, 2015 $3.9999% (98%)20,000 .. 50,0000%00:00 (00:00)
2 Dungeon Warfare Nov 4, 2015 $9.9997% (97%)20,000 .. 50,0000%00:00 (00:00)
3 Seven Kingdoms: Ancient Adversaries Mar 22, 2016 $5.99N/A (N/A)0 .. 20,0000%00:00 (00:00)
4 Imperium Galactica Jan 19, 2017 $4.99N/A (N/A)0 .. 20,0000%00:00 (00:00)
5 Defend The Highlands Nov 6, 2015 $9.99N/A (N/A)100,000 .. 200,0000%00:00 (00:00)
6 Militia Dec 2, 2015 $5.9995% (96%)0 .. 20,0000%00:00 (00:00)
7 Voodoo Vince: Remastered Apr 17, 2017 $14.9995% (96%/63%)0 .. 20,0000%00:00 (00:00)
8 Templar Battleforce Sep 21, 2015 $9.9993% (95%)20,000 .. 50,0000%00:00 (00:00)
9 Chicken Invaders 2 Mar 4, 2016 $3.9993% (95%)0 .. 20,0000%00:00 (00:00)
10 Supercharged Robot VULKAISER Jun 4, 2015 $4.9993% (95%)20,000 .. 50,0000%00:00 (00:00)
11 Hegemony Gold: Wars of Ancient Greece Mar 30, 2012 $14.9993% (95%)20,000 .. 50,0000%00:00 (00:00)
12 Flywrench Aug 24, 2015 $6.9993% (95%)0 .. 20,0000%00:00 (00:00)
13 Star Trek: Judgment Rites May 8, 2015 $9.99N/A (N/A)0 .. 20,0000%00:00 (00:00)
14 Majesty Gold HD Mar 23, 2001 $9.9990% (94%)100,000 .. 200,0000%00:00 (00:00)
15 Stick it to The Man! Dec 13, 2013 $7.9990% (94%/83%)20,000 .. 50,0000%00:00 (00:00)
16 Audio Arena Jul 25, 2016 $6.99N/A (N/A)0 .. 20,0000%00:00 (00:00)
17 Adventure in the Tower of Flight Dec 23, 2015 $4.99N/A (N/A)0 .. 20,0000%00:00 (00:00)
18 Outcast 1.1 Dec 18, 2014 $5.9990% (94%)20,000 .. 50,0000%00:00 (00:00)
19 PixelJunk Shooter Nov 11, 2013 $8.9990% (94%/73%)100,000 .. 200,0000.58%01:12 (00:40)
20 Neon Chrome Apr 28, 2016 $14.9990% (94%/74%)200,000 .. 500,0000.22%01:52 (00:37)
21 Gold Rush! Classic Dec 23, 1988 $2.99N/A (N/A)200,000 .. 500,0000%00:00 (00:00)
22 Super Trench Attack! Jul 24, 2014 $4.9987% (93%)50,000 .. 100,0000.76%00:22 (00:14)
23 Pharaoh Rebirth+ Mar 17, 2016 $9.9987% (93%)0 .. 20,0005.26%10:27 (03:29)
24 Run or Die Dec 11, 2014 $4.9987% (93%)0 .. 20,0000%00:00 (00:00)
25 Bleed Jul 3, 2013 $4.9987% (93%)100,000 .. 200,0001.02%00:41 (00:27)
26 Anarcute Jul 12, 2016 $14.9987% (93%/79%)0 .. 20,0000%00:00 (00:00)
27 Handsome Mr. Frog Aug 8, 2016 $0.9987% (93%)0 .. 20,0000%00:00 (00:00)
28 Eufloria HD Oct 14, 2014 $14.9987% (93%)200,000 .. 500,0000%00:00 (00:00)
29 Kick Ass Commandos Nov 17, 2016 $4.9987% (93%)20,000 .. 50,0000%00:00 (00:00)
30 Kalimba Apr 22, 2015 $9.9987% (93%/81%)0 .. 20,0000%00:00 (00:00)
31 Major Mayhem Feb 24, 2014 $4.99N/A (N/A)20,000 .. 50,0000%00:00 (00:00)
32 Miracle Fly Oct 26, 2015 $7.99N/A (N/A)20,000 .. 50,0000%00:00 (00:00)
33 Wars and Warriors: Joan of Arc Sep 3, 2015 $6.9983% (92%/60%)0 .. 20,0000%00:00 (00:00)
34 Ittle Dew Jul 23, 2013 $9.9983% (92%/67%)100,000 .. 200,0000.34%00:08 (00:02)
35 Death Ray Manta SE Sep 17, 2015 $1.9983% (92%)20,000 .. 50,0000%00:00 (00:00)
36 Knightmare Tower Jun 16, 2014 $3.9983% (92%)0 .. 20,0000%00:00 (00:00)
37 Great Big War Game Aug 28, 2012 $6.99N/A (N/A)0 .. 20,0000%00:00 (00:00)
38 Shmups Skill Test シューティング技能検定 Jun 9, 2016 $4.99N/A (N/A)0 .. 20,0000%00:00 (00:00)
39 Darknet Jun 8, 2017 $14.99N/A (N/A)0 .. 20,0000%00:00 (00:00)
40 Tallowmere Mar 3, 2015 $3.9983% (92%)20,000 .. 50,0000%00:00 (00:00)
41 Ys VI: The Ark of Napishtim Apr 28, 2015 $19.9983% (92%/76%)50,000 .. 100,0001.25%02:58 (00:59)
42 Near Death Aug 2, 2016 $4.9479% (91%/70%)20,000 .. 50,0000%00:00 (00:00)
43 Dandy: Or a Brief Glimpse Into the Life of the Candy Alchemist Aug 4, 2015 $9.99N/A (N/A)0 .. 20,0000%00:00 (00:00)
44 Mad Bullets Jun 10, 2016 $2.9979% (91%)0 .. 20,0000%00:00 (00:00)
45 Apocalypse: Party's Over May 30, 2016 $4.9979% (91%)0 .. 20,0000%00:00 (00:00)
46 Momodora III Jul 1, 2014 $1.9979% (91%)50,000 .. 100,0002.04%01:22 (00:54)
47 Codename: Panzers, Phase Two Feb 18, 2016 $14.9979% (91%/80%)0 .. 20,0000%00:00 (00:00)
48 Battle Academy 2: Eastern Front Sep 12, 2014 $39.9979% (91%/78%)0 .. 20,0000%00:00 (00:00)
49 Super Cyborg Jul 8, 2015 $4.9979% (91%)20,000 .. 50,0000%00:00 (00:00)
50 The Juicer Sep 11, 2015 $0.9979% (91%)20,000 .. 50,0000%00:00 (00:00)
51 Weird Hero Nov 18, 2016 $3.9979% (91%)0 .. 20,0000%00:00 (00:00)
52 Clash of Puppets Dec 16, 2014 $4.99N/A (N/A)0 .. 20,0000%00:00 (00:00)
53 Below Kryll Sep 7, 2015 $4.9979% (91%)0 .. 20,0000%00:00 (00:00)
54 Skulls of the Shogun Jul 29, 2013 $9.9979% (91%/72%)100,000 .. 200,0000.28%04:09 (01:23)
55 Kohan II: Kings of War Sep 21, 2004 $9.9979% (91%/81%)20,000 .. 50,0000%00:00 (00:00)
56 Blue Estate The Game Apr 8, 2015 $12.9979% (91%/59%)50,000 .. 100,0000.62%04:06 (01:22)
57 Angry Video Game Nerd II: ASSimilation Mar 29, 2016 $9.9979% (91%)20,000 .. 50,0000%00:00 (00:00)
58 Flashpoint Campaigns: Red Storm Player's Edition Oct 9, 2013 $49.9979% (91%)0 .. 20,0000%00:00 (00:00)
59 Death's Hangover Jan 20, 2017 $4.9976% (90%)20,000 .. 50,0000.96%00:10 (00:03)
60 Ace of Seafood Apr 8, 2016 $11.9976% (90%)0 .. 20,0000%00:00 (00:00)
61 RIVE: Wreck, Hack, Die, Retry! Sep 13, 2016 $14.9976% (90%)200,000 .. 500,0000.18%03:33 (01:11)
62 Warhammer 40,000: Dawn of War – Winter Assault Jan 1, 2006 $12.9976% (90%)500,000 .. 1,000,0000%00:00 (00:00)
63 Khet 2.0 Oct 1, 2014 $9.9976% (90%)50,000 .. 100,0000%00:00 (00:00)
64 Wild Guns Reloaded Jul 11, 2017 $14.9976% (90%)0 .. 20,0000%00:00 (00:00)
65 MoonBase Commander Aug 13, 2002 $5.9976% (90%/77%)20,000 .. 50,0000%00:00 (00:00)
66 Swords and Soldiers HD Dec 2, 2010 $9.9976% (90%)100,000 .. 200,0000.15%00:27 (00:35)
67 System Crash Aug 1, 2016 $14.9976% (90%)0 .. 20,0000%00:00 (00:00)
68 Superstatic Sep 15, 2015 $4.99N/A (N/A)0 .. 20,0001.49%00:01 (00:00)
69 Valley Aug 24, 2016 $19.9976% (90%)200,000 .. 500,0002.6%02:48 (03:24)
70 Earth Defense Force: Insect Armageddon Dec 14, 2011 $9.9976% (90%/69%)50,000 .. 100,0000%00:00 (00:00)
71 Headlander Jul 25, 2016 $19.9976% (90%/74%)50,000 .. 100,0000%00:00 (00:00)
72 Zombo Buster Rising Oct 2, 2016 $1.9976% (90%)0 .. 20,0000%00:00 (00:00)
73 Planet of the Eyes Aug 24, 2015 $9.9976% (90%/66%)50,000 .. 100,0000%00:00 (00:00)
74 Amaranthine Apr 6, 2016 $2.99N/A (N/A)0 .. 20,0000%00:00 (00:00)
75 Sneaky Sneaky Nov 12, 2014 $4.9976% (90%/63%)0 .. 20,0000%00:00 (00:00)
76 Armed with Wings: Rearmed Jun 1, 2017 $9.9973% (89%)20,000 .. 50,0000%00:00 (00:00)
77 Fort Meow Jun 24, 2015 $7.9973% (89%)0 .. 20,0000%00:00 (00:00)
78 Tcheco in the Castle of Lucio Jun 22, 2015 $0.9973% (89%)50,000 .. 100,0000%00:00 (00:00)
79 Lethe - Episode One Aug 1, 2016 $14.9973% (89%)0 .. 20,0000%00:00 (00:00)
80 Silent Storm Gold Edition Sep 9, 2004 $9.9973% (89%/83%)200,000 .. 500,0000%00:00 (00:00)
81 Reverse Crawl Sep 24, 2015 $5.9973% (89%)20,000 .. 50,0000%00:00 (00:00)
82 CastleStorm Jul 29, 2013 $9.9973% (89%/73%)100,000 .. 200,0000.75%03:07 (01:03)
83 The Fall May 30, 2014 $9.9970% (88%/76%)200,000 .. 500,0000%00:00 (00:00)
84 Greed Corp Dec 10, 2010 $9.9970% (88%/76%)200,000 .. 500,0000%00:00 (00:00)
85 Explosionade Sep 23, 2015 $3.99N/A (N/A)0 .. 20,0000%00:00 (00:00)
86 TRON 2.0 Aug 22, 2003 $9.9970% (88%/84%)50,000 .. 100,0001.61%00:02 (00:00)
87 Mr. Shifty Apr 13, 2017 $14.9970% (88%)50,000 .. 100,0001.37%02:21 (03:16)
88 Atom Zombie Smasher Mar 14, 2011 $9.9970% (88%/75%)200,000 .. 500,0000.51%00:36 (00:15)
89 Viking Squad Oct 4, 2016 $14.9970% (88%)0 .. 20,0000%00:00 (00:00)
90 Kohan: Ahriman's Gift Aug 24, 2011 $9.99N/A (N/A/79%)0 .. 20,0000%00:00 (00:00)
91 Earn to Die 2 May 5, 2016 $4.9970% (88%)20,000 .. 50,0005.26%00:07 (00:02)
92 Anodyne Mar 22, 2013 $9.9970% (88%/75%)100,000 .. 200,0000%00:00 (00:00)
93 Battlepillars Gold Edition Apr 28, 2014 $4.9970% (88%)20,000 .. 50,0005.13%05:24 (05:50)
94 Sang-Froid - Tales of Werewolves Apr 5, 2013 Free67% (87%/79%)200,000 .. 500,0000%00:00 (00:00)
95 Syrian Warfare Feb 21, 2017 $14.9967% (87%)50,000 .. 100,0006.82%03:31 (02:55)
96 Shadow Blade: Reload Aug 10, 2015 $14.9967% (87%/70%)20,000 .. 50,0000.76%02:15 (00:45)
97 The Tiny Tale 2 Jan 30, 2015 $6.99N/A (N/A)0 .. 20,0000%00:00 (00:00)
98 Avoid - Sensory Overload Apr 8, 2014 $4.9967% (87%)20,000 .. 50,0000%00:00 (00:00)
99 The Haunted: Hells Reach Oct 24, 2011 $8.9967% (87%/51%)50,000 .. 100,0000%00:00 (00:00)
100 Spider: Rite of the Shrouded Moon Aug 6, 2015 $9.99N/A (N/A)20,000 .. 50,0000%00:00 (00:00)
101 Graviteam Tactics: Mius-Front Mar 4, 2016 $34.9967% (87%)0 .. 20,0000%00:00 (00:00)
102 Spectromancer Oct 15, 2008 $9.9967% (87%)20,000 .. 50,0000%00:00 (00:00)
103 Spooky Cats Jun 4, 2015 $2.9967% (87%)20,000 .. 50,0000%00:00 (00:00)
104 Lethal VR Nov 8, 2016 $3.7467% (87%/66%)0 .. 20,0000%00:00 (00:00)
105 Rush for Berlin Gold Oct 29, 2009 $4.9967% (87%/76%)20,000 .. 50,0000%00:00 (00:00)
106 Time Rifters Oct 21, 2014 $9.9967% (87%)0 .. 20,0003.7%02:58 (00:59)
107 Blacksea Odyssey Jun 1, 2016 $9.9967% (87%/74%)20,000 .. 50,0000%00:00 (00:00)
108 Executive Assault Jul 17, 2015 $12.9965% (86%)20,000 .. 50,0001.79%00:01 (00:00)
109 Command: Northern Inferno Oct 22, 2015 $19.99N/A (N/A)0 .. 20,0000%00:00 (00:00)
110 Bullet Sorrow VR Apr 17, 2017 $19.9965% (86%)0 .. 20,00016.67%00:03 (00:01)
111 Steel Rain Dec 3, 2015 $9.99N/A (N/A)0 .. 20,0001.69%00:01 (00:00)
112 Supreme Commander Feb 20, 2007 $12.9965% (86%/86%)500,000 .. 1,000,0000.46%02:54 (02:24)
113 Slash or Die Jun 3, 2016 $2.9965% (86%)20,000 .. 50,0000%00:00 (00:00)
114 The Way May 20, 2016 $14.9965% (86%/67%)50,000 .. 100,0000%00:00 (00:00)
115 NOBUNAGA'S AMBITION: Souzou (Traditional Chinese version) Aug 2014 $24.9965% (86%)20,000 .. 50,0000%00:00 (00:00)
116 Arcane Sorcery Sep 15, 2015 $4.99N/A (N/A)0 .. 20,0000%00:00 (00:00)
117 Super Chibi Knight Jun 24, 2015 $4.9965% (86%)20,000 .. 50,0001.54%01:55 (00:38)
118 Civilization IV: Warlords Apr 6, 2007 $4.9965% (86%/84%)1,000,000 .. 2,000,0000%00:00 (00:00)
119 Meltdown Jun 5, 2014 $6.9965% (86%)50,000 .. 100,0000.79%00:03 (00:01)
120 Star Ruler Sep 20, 2010 $9.9965% (86%)100,000 .. 200,0000%00:00 (00:00)
121 Ballistic Tanks Sep 20, 2016 $4.9965% (86%)0 .. 20,0000%00:00 (00:00)
122 VelocityUltra Dec 12, 2013 $9.9962% (85%)50,000 .. 100,0000.57%00:02 (00:00)
123 Age of Wonders Shadow Magic Oct 2010 $2.4962% (85%/82%)100,000 .. 200,0000%00:00 (00:00)
124 ENSLAVED: Odyssey to the West Premium Edition Oct 24, 2013 $19.9962% (85%/70%)200,000 .. 500,0000.17%01:23 (00:27)
125 Last Knight: Rogue Rider Edition Oct 3, 2014 $7.9962% (85%)20,000 .. 50,0000%00:00 (00:00)
126 Magnifico Dec 2, 2014 $4.99N/A (N/A)50,000 .. 100,0000%00:00 (00:00)
127 Gurgamoth Feb 16, 2016 $4.99N/A (N/A)50,000 .. 100,0000.52%02:31 (00:50)
128 Delta Force 2 Oct 31, 1999 $4.9962% (85%)50,000 .. 100,0000%00:00 (00:00)
129 Interloper May 21, 2015 Free62% (85%/77%)50,000 .. 100,0000.29%00:49 (00:16)
130 Dustoff Heli Rescue Mar 6, 2015 $3.9962% (85%)20,000 .. 50,0000.91%00:02 (00:00)
131 ShootMania Storm Apr 10, 2013 $19.9962% (85%/76%)50,000 .. 100,0001.49%01:12 (00:24)
132 Ghost Master Aug 23, 2003 $4.9962% (85%/81%)100,000 .. 200,0000%00:00 (00:00)
133 Rooks Keep Dec 5, 2014 $7.99N/A (N/A)20,000 .. 50,0001.05%03:30 (01:10)
134 Western 1849 Reloaded Feb 10, 2017 $4.9962% (85%)0 .. 20,0001.28%00:06 (00:02)
135 Act of War: Direct Action Mar 14, 2005 $2.9959% (84%/82%)20,000 .. 50,0000%00:00 (00:00)
136 Demons with Shotguns Apr 25, 2016 $9.99N/A (N/A)0 .. 20,0000%00:00 (00:00)
137 CRYPTARK Jun 20, 2017 $14.9959% (84%/80%)50,000 .. 100,0000%00:00 (00:00)
138 Fat Chicken Dec 4, 2014 $9.99N/A (N/A)0 .. 20,0000%00:00 (00:00)
139 Legend (1994) Nov 10, 2015 $4.99N/A (N/A)0 .. 20,0004.17%06:00 (04:00)
140 Foresight Nov 28, 2014 $4.99N/A (N/A)0 .. 20,0000%00:00 (00:00)
141 Battle Group 2 Jun 13, 2014 $7.9959% (84%)50,000 .. 100,0000%00:00 (00:00)
142 Super Furball Apr 21, 2015 $3.99N/A (N/A)0 .. 20,0000%00:00 (00:00)
143 Neon Shadow Aug 25, 2016 $4.99N/A (N/A)0 .. 20,0000%00:00 (00:00)
144 The Men of Yoshiwara: Kikuya Oct 14, 2015 $29.9959% (84%)0 .. 20,0000%00:00 (00:00)
145 Sudden Strike 2 Gold May 22, 2017 $5.9959% (84%)0 .. 20,0002.86%00:13 (00:04)
146 Weapon of Choice Sep 23, 2015 $4.99N/A (N/A)0 .. 20,0000%00:00 (00:00)
147 Eador: Genesis Aug 7, 2009 $5.9957% (83%)50,000 .. 100,0000.73%00:03 (00:01)
148 Crush Your Enemies Jul 13, 2016 $9.9957% (83%/63%)20,000 .. 50,0000%00:00 (00:00)
149 Advanced Tactics Gold Apr 12, 2011 $29.9957% (83%)0 .. 20,0000%00:00 (00:00)
150 GIBZ Apr 7, 2017 $3.1957% (83%)0 .. 20,0004.55%00:04 (00:01)
151 NOBUNAGA'S AMBITION: Sphere of Influence Sep 1, 2015 $59.9957% (83%/70%)20,000 .. 50,0000%00:00 (00:00)
152 Orbital Gear Aug 7, 2014 $9.9957% (83%/59%)200,000 .. 500,0000.17%00:01 (00:00)
153 TY the Tasmanian Tiger 4 Sep 17, 2015 $5.9957% (83%)20,000 .. 50,0000%00:00 (00:00)
154 Ace of Protectors Jun 27, 2016 $1.99N/A (N/A)20,000 .. 50,0002.44%04:42 (03:07)
155 htoL#NiQ: The Firefly Diary / htoL#NiQ-ホタルノニッキ- May 18, 2016 $9.9954% (82%)20,000 .. 50,0000%00:00 (00:00)
156 Galaxy Admirals Jan 17, 2017 $1.9954% (82%)50,000 .. 100,0000.4%03:56 (01:18)
157 PixelJunk Shooter Ultimate Oct 21, 2015 $9.9954% (82%)0 .. 20,0000%00:00 (00:00)
158 Shadow Ops: Red Mercury Sep 17, 2004 $6.9954% (82%/61%)20,000 .. 50,0000%00:00 (00:00)
159 Rack N Ruin Sep 1, 2015 $9.99N/A (N/A)0 .. 20,0002.08%03:46 (01:15)
160 Bulletstorm: Full Clip Edition Apr 7, 2017 $39.9954% (82%/76%)50,000 .. 100,0001.61%00:28 (00:18)
161 Square Brawl Oct 22, 2015 $4.9954% (82%)0 .. 20,0005%04:08 (01:22)
162 Yomi May 8, 2015 $14.9954% (82%)0 .. 20,0000%00:00 (00:00)
163 Blade Arcus from Shining: Battle Arena Jul 28, 2016 $29.9952% (81%)0 .. 20,0000%00:00 (00:00)
164 Supreme Ruler 2020 Gold Jun 17, 2008 $9.9952% (81%/65%)50,000 .. 100,0000%00:00 (00:00)
165 ROD: Revolt Of Defense Aug 12, 2016 $0.9952% (81%)20,000 .. 50,0000%00:00 (00:00)
166 Gun Metal Sep 23, 2003 $2.9952% (81%)200,000 .. 500,0000%00:00 (00:00)
167 Fantasy Wars Aug 6, 2010 $4.9952% (81%/67%)50,000 .. 100,0000%00:00 (00:00)
168 Conflict Desert Storm Sep 13, 2002 $6.9952% (81%/56%)50,000 .. 100,0000%00:00 (00:00)
169 In Verbis Virtus Apr 3, 2015 $19.9952% (81%)50,000 .. 100,0000%00:00 (00:00)
170 Toadled Sep 22, 2016 $0.9952% (81%)50,000 .. 100,0000%00:00 (00:00)
171 Tiki Man Jun 5, 2015 $0.9952% (81%)20,000 .. 50,0000%00:00 (00:00)
172 Trigger Runners Mar 3, 2016 $1.99N/A (N/A)0 .. 20,0000%00:00 (00:00)
173 7,62 High Calibre Aug 24, 2007 $4.9950% (80%)50,000 .. 100,0000%00:00 (00:00)
174 Enemy Mind Jun 6, 2014 $9.9950% (80%)200,000 .. 500,0000.38%02:43 (01:08)
175 rymdkapsel Jan 30, 2014 $7.9950% (80%/77%)0 .. 20,0000%00:00 (00:00)
176 Zeno Clash 2 Apr 30, 2013 $14.9950% (80%)200,000 .. 500,0000%00:00 (00:00)
177 Child Of Ault Jan 24, 2017 $9.99N/A (N/A)0 .. 20,0000%00:00 (00:00)
178 Monday Night Combat Jan 24, 2011 $4.9950% (80%/82%)200,000 .. 500,0000%00:00 (00:00)
179 Disciples Sacred Lands Gold Oct 4, 1999 $7.9950% (80%)50,000 .. 100,0000%00:00 (00:00)
180 Envoy Mar 17, 2016 $1.24N/A (N/A)50,000 .. 100,0000%00:00 (00:00)
181 Fleet Command May 15, 1999 $9.9950% (80%)50,000 .. 100,0000%00:00 (00:00)
182 Bloodsports.TV Mar 30, 2015 $9.9950% (80%/69%)50,000 .. 100,0000.73%07:25 (04:56)
183 Locoland May 28, 2015 $0.9950% (80%)0 .. 20,0005.88%00:01 (00:00)
184 Star Wolves 3: Civil War Mar 2, 2010 $4.9950% (80%)100,000 .. 200,0000%00:00 (00:00)
185 Graviteam Tactics: Operation Star Mar 22, 2012 $29.9950% (80%)20,000 .. 50,0003.03%00:12 (00:04)
186 Perimeter May 21, 2004 $3.9950% (80%/77%)20,000 .. 50,0000%00:00 (00:00)
187 Defense Zone Jul 14, 2014 $2.99N/A (N/A)0 .. 20,0000%00:00 (00:00)
188 Legends of Callasia Jun 10, 2016 Free50% (80%)50,000 .. 100,0000%00:00 (00:00)
189 Conquest of Elysium 3 Oct 24, 2012 $9.9950% (80%)20,000 .. 50,0000%00:00 (00:00)
190 Junk Jack Nov 30, 2016 $14.9950% (80%)0 .. 20,0000%00:00 (00:00)
191 She Wants Me Dead May 13, 2016 $7.99N/A (N/A)0 .. 20,0003.13%00:09 (00:03)
192 Run Rabbit Run Mar 31, 2016 $3.99N/A (N/A)0 .. 20,0002.33%02:30 (00:50)
193 Hail to the King: Deathbat Oct 30, 2014 $5.9950% (80%)0 .. 20,0000%00:00 (00:00)
194 Nuclear Dawn Sep 26, 2011 $1.4948% (79%/71%)200,000 .. 500,0000.18%00:26 (00:08)
195 Gatling Gears Aug 30, 2011 $9.9948% (79%)20,000 .. 50,0000%00:00 (00:00)
196 Bet On Soldier Sep 26, 2005 $7.9948% (79%)50,000 .. 100,0000.84%00:04 (00:01)
197 Ironcast Mar 26, 2015 $14.9948% (79%/75%)20,000 .. 50,0000%00:00 (00:00)
198 Age of Gladiators Feb 25, 2016 $9.9948% (79%)20,000 .. 50,0001.54%07:01 (02:20)
199 Vietnam ‘65 Mar 5, 2015 $9.9948% (79%/81%)20,000 .. 50,0000%00:00 (00:00)
200 Caster Mar 19, 2009 $1.9948% (79%)200,000 .. 500,0000%00:00 (00:00)
201 Anomaly 2 May 15, 2013 $2.2448% (79%/77%)200,000 .. 500,0000.36%01:10 (00:26)
202 TRON RUN/r Feb 16, 2016 $19.9948% (79%)0 .. 20,0000%00:00 (00:00)
203 Advent Rising Aug 9, 2005 $9.9948% (79%/70%)50,000 .. 100,0000%00:00 (00:00)
204 TASTEE: Lethal Tactics May 10, 2016 $14.9948% (79%)20,000 .. 50,0000%00:00 (00:00)
205 Interplanetary May 12, 2015 N/A48% (79%)100,000 .. 200,0000.66%04:48 (05:13)
206 Pharaonic Apr 28, 2016 $14.9948% (79%)0 .. 20,0000%00:00 (00:00)
207 Fate of the World Feb 28, 2011 $9.9948% (79%/70%)50,000 .. 100,0000%00:00 (00:00)
208 David. Mar 14, 2014 $1.9948% (79%)50,000 .. 100,0000%00:00 (00:00)
209 Fortified Feb 3, 2016 $14.9948% (79%)500,000 .. 1,000,0000.43%25:30 (04:01)
210 Tank Destroyer Mar 9, 2017 $2.9948% (79%)20,000 .. 50,0000%00:00 (00:00)
211 The Legend of Dark Witch Dec 1, 2015 $4.9948% (79%)20,000 .. 50,0000%00:00 (00:00)
212 Protoshift Jan 15, 2016 $0.99N/A (N/A)0 .. 20,0001.39%04:03 (01:21)
213 Umihara Kawase Shun: Steam Edition Nov 24, 2015 $11.99N/A (N/A)0 .. 20,0000%00:00 (00:00)
214 Making History: The Calm & the Storm Mar 13, 2007 $4.9948% (79%/70%)50,000 .. 100,0000%00:00 (00:00)
215 Demolition Inc. Sep 19, 2011 $5.9948% (79%)50,000 .. 100,0000%00:00 (00:00)
216 Defense Zone 3 Ultra HD Dec 14, 2016 $2.9948% (79%)20,000 .. 50,0000%00:00 (00:00)
217 PAC-MAN and the Ghostly Adventures Oct 29, 2013 $19.9946% (78%)0 .. 20,0000%00:00 (00:00)
218 Afghanistan '11 Mar 23, 2017 $29.9946% (78%)0 .. 20,0000%00:00 (00:00)
219 Cultures - 8th Wonder of the World Mar 26, 2015 $4.9946% (78%)50,000 .. 100,0000.59%04:32 (01:30)
220 Deadly 30 Jan 8, 2014 $4.9946% (78%)100,000 .. 200,0000.59%03:05 (02:03)
221 Strike Suit Zero: Director's Cut Apr 8, 2014 $19.9946% (78%)20,000 .. 50,0000%00:00 (00:00)
222 Starscape Mar 27, 2003 $7.9946% (78%)20,000 .. 50,0000%00:00 (00:00)
223 Dead Rising 2: Off the Record Oct 11, 2011 $19.9946% (78%/66%)200,000 .. 500,0000.48%03:02 (03:01)
224 Mold on Pizza Sep 25, 2015 $5.9946% (78%)0 .. 20,0002.7%00:01 (00:00)
225 After The End: The Harvest Jun 2, 2017 $4.99N/A (N/A)20,000 .. 50,0000%00:00 (00:00)
226 Aeon Command Jul 3, 2014 $2.9946% (78%)20,000 .. 50,0000%00:00 (00:00)
227 Klang Sep 22, 2016 $14.9946% (78%/71%)0 .. 20,0000%00:00 (00:00)
228 Velocity 2X Aug 19, 2015 $19.99N/A (N/A)50,000 .. 100,0000%00:00 (00:00)
229 Zombie Party Jun 10, 2016 $9.9946% (78%)100,000 .. 200,0000%00:00 (00:00)
230 Zombie Killtime Aug 4, 2015 $1.99N/A (N/A)0 .. 20,0000%00:00 (00:00)
231 Age of Wonders Oct 2010 $1.4946% (78%)100,000 .. 200,0000%00:00 (00:00)
232 Ninjahtic Jul 6, 2015 $1.9944% (77%)0 .. 20,0000%00:00 (00:00)
233 Warlords Battlecry III Jan 22, 2016 $9.9944% (77%/73%)20,000 .. 50,0000%00:00 (00:00)
234 The Political Machine 2016 Feb 4, 2016 $9.9944% (77%)50,000 .. 100,0001.16%00:17 (00:09)
235 Curse of the Crescent Isle DX Aug 21, 2015 $0.9944% (77%)0 .. 20,0000%00:00 (00:00)
236 Blue Effect VR Feb 8, 2017 $14.9944% (77%)0 .. 20,0000%00:00 (00:00)
237 A Blind Legend Apr 7, 2016 $6.9944% (77%)0 .. 20,0000%00:00 (00:00)
238 Anomaly Warzone Earth Mobile Campaign Nov 6, 2013 $0.7444% (77%)100,000 .. 200,0000%00:00 (00:00)
239 Warhammer 40,000: Armageddon Nov 26, 2014 $39.9944% (77%/68%)20,000 .. 50,0000%00:00 (00:00)
240 Starchaser: Priestess of the Night Sky Jul 24, 2015 $9.99N/A (N/A)0 .. 20,0009.09%00:21 (00:07)
241 Star Realms Mar 8, 2016 Free44% (77%)100,000 .. 200,0000%00:00 (00:00)
242 Auralux: Constellations Jun 1, 2016 $9.99N/A (N/A)0 .. 20,0000%00:00 (00:00)
243 Dominions 3: The Awakening Sep 10, 2013 $19.9944% (77%/82%)0 .. 20,0000%00:00 (00:00)
244 King of Dragon Pass Jul 28, 2015 $11.9944% (77%)20,000 .. 50,0000%00:00 (00:00)
245 Sky Gamblers: Storm Raiders Jan 7, 2015 $9.9944% (77%)0 .. 20,0000%00:00 (00:00)
246 Making History II: The War of the World Jun 22, 2010 $14.9944% (77%/38%)20,000 .. 50,0000%00:00 (00:00)
247 Heroes of Might & Magic V: Hammers of Fate Nov 14, 2006 $9.9944% (77%/66%)200,000 .. 500,0000%00:00 (00:00)
248 McDROID Sep 5, 2014 $9.9944% (77%)0 .. 20,0000%00:00 (00:00)
249 Dangerous Waters Feb 7, 2006 $14.9942% (76%/82%)50,000 .. 100,0000%00:00 (00:00)
250 Cashtronauts Aug 31, 2016 $2.99N/A (N/A)0 .. 20,0000%00:00 (00:00)
251 Battlezone Gold Edition May 11, 2017 $34.9942% (76%)0 .. 20,0000%00:00 (00:00)
252 Painkiller Hell & Damnation Oct 31, 2012 $19.9942% (76%/64%)500,000 .. 1,000,0000.49%05:04 (05:04)
253 Mysterium: A Psychic Clue Game Jan 12, 2017 $3.9842% (76%)50,000 .. 100,0000.31%01:01 (00:20)
254 Rocket Knight May 11, 2010 $14.9942% (76%/63%)0 .. 20,0000%00:00 (00:00)
255 Deadlings: Rotten Edition Nov 11, 2014 $3.9942% (76%)50,000 .. 100,0000%00:00 (00:00)
256 Jim Power -The Lost Dimension Sep 30, 2015 $4.99N/A (N/A)0 .. 20,0000%00:00 (00:00)
257 Olympia Rising Jul 23, 2015 $4.9942% (76%)0 .. 20,0000%00:00 (00:00)
258 BloodRayne Sep 9, 2003 $9.9942% (76%/65%)50,000 .. 100,0000%00:00 (00:00)
259 Vector Strain Dec 9, 2015 $4.99N/A (N/A)20,000 .. 50,0000%00:00 (00:00)
260 Extravaganza Rising Jul 21, 2016 N/AN/A (N/A)20,000 .. 50,0000%00:00 (00:00)
261 A.R.E.S. Extinction Agenda EX Oct 3, 2014 $1.9942% (76%)0 .. 20,0000%00:00 (00:00)
262 Corgi Warlock Dec 3, 2015 $1.9942% (76%)20,000 .. 50,0000%00:00 (00:00)
263 Monster Monpiece Mar 14, 2017 $19.9940% (75%)20,000 .. 50,0000%00:00 (00:00)
264 Platformines Mar 28, 2014 $9.9940% (75%/67%)100,000 .. 200,0000%00:00 (00:00)
265 Star Hammer: The Vanguard Prophecy Jun 4, 2015 $19.9940% (75%/69%)0 .. 20,0007.69%00:58 (00:19)
266 Onechanbara Z2: Chaos Jun 2, 2016 $39.9940% (75%)0 .. 20,0000%00:00 (00:00)
267 Heaven Forest NIGHTS Mar 14, 2017 $0.99N/A (N/A)100,000 .. 200,0000.37%05:44 (02:00)
268 Perimeter: Emperor's Testament May 22, 2014 $3.99N/A (N/A/72%)20,000 .. 50,0001.49%00:02 (00:00)
269 Civil War II Sep 17, 2013 $39.9940% (75%)0 .. 20,0000%00:00 (00:00)
270 Bubsy Two-Fur Dec 17, 2015 $4.9940% (75%)0 .. 20,0000%00:00 (00:00)
271 Fist Puncher Jun 21, 2013 $9.9940% (75%/73%)20,000 .. 50,0001.14%04:10 (01:23)
272 CivCity: Rome Jul 24, 2006 $9.9940% (75%/67%)50,000 .. 100,0000%00:00 (00:00)
273 Victory At Sea Aug 8, 2014 $24.9940% (75%)20,000 .. 50,0000%00:00 (00:00)
274 Battle Mages: Sign of Darkness Apr 13, 2006 $0.9940% (75%)20,000 .. 50,0000%00:00 (00:00)
275 WARSHIFT Oct 12, 2016 $12.9940% (75%)20,000 .. 50,0000%00:00 (00:00)
276 Z Jul 4, 2014 $0.6940% (75%)100,000 .. 200,0000.22%00:01 (00:00)
277 BossConstructor Oct 24, 2016 $14.9940% (75%)0 .. 20,0000%00:00 (00:00)
278 Chaser Aug 22, 2003 $4.9940% (75%/66%)100,000 .. 200,0000%00:00 (00:00)
279 Hunting Unlimited 2008 Sep 1, 2007 $9.99N/A (N/A)20,000 .. 50,0000%00:00 (00:00)
280 Livelock Aug 30, 2016 $9.9940% (75%/73%)20,000 .. 50,0000%00:00 (00:00)
281 Rocketbirds 2 Evolution Jan 26, 2017 $9.9940% (75%)20,000 .. 50,0000%00:00 (00:00)
282 Distant Worlds: Universe May 23, 2014 $59.9938% (74%/81%)50,000 .. 100,0000%00:00 (00:00)
283 Riddled Corpses Jun 2, 2015 $7.9938% (74%)20,000 .. 50,0001.06%00:09 (00:03)
284 Ubersoldier II Jul 22, 2008 $1.9938% (74%/62%)100,000 .. 200,0000%00:00 (00:00)
285 Spirits of Xanadu Mar 26, 2015 $4.9938% (74%)20,000 .. 50,0000%00:00 (00:00)
286 Albino Lullaby: Episode 1 Sep 14, 2015 $9.9938% (74%)20,000 .. 50,0000%00:00 (00:00)
287 Commander: The Great War Nov 12, 2012 $29.9938% (74%)0 .. 20,0000%00:00 (00:00)
288 Battle Time Sep 29, 2016 $0.9938% (74%)50,000 .. 100,0001.06%04:09 (02:46)
289 Master Reboot Oct 29, 2013 $14.9938% (74%/59%)50,000 .. 100,0000%00:00 (00:00)
290 TableTop Soccer Apr 22, 2016 $0.9938% (74%)0 .. 20,0000%00:00 (00:00)
291 Viktor Jun 13, 2014 $7.9938% (74%)20,000 .. 50,0000%00:00 (00:00)
292 Smell Of Death Jul 4, 2016 $9.99N/A (N/A)0 .. 20,0000%00:00 (00:00)
293 Hot Tin Roof: The Cat That Wore A Fedora Feb 20, 2015 $14.9936% (73%/66%)100,000 .. 200,0000%00:00 (00:00)
294 Death by Game Show Jan 22, 2016 $9.99N/A (N/A)20,000 .. 50,0000%00:00 (00:00)
295 Rex Rocket Aug 5, 2014 $4.9936% (73%)20,000 .. 50,0000%00:00 (00:00)
296 Retrovirus Jan 31, 2013 $9.9936% (73%/70%)20,000 .. 50,0000%00:00 (00:00)
297 Battle Fleet 2 Nov 20, 2014 $14.9936% (73%)20,000 .. 50,0000%00:00 (00:00)
298 Cuban Missile Crisis Mar 25, 2015 $4.9936% (73%)20,000 .. 50,0000%00:00 (00:00)
299 Making History: The Great War Jan 29, 2015 $29.9936% (73%)20,000 .. 50,0002.38%03:32 (01:10)
300 Supreme Ruler Ultimate Oct 17, 2014 $19.9936% (73%)20,000 .. 50,0008.33%00:17 (00:08)
301 The Aquatic Adventure of the Last Human Jan 19, 2016 $9.9936% (73%/76%)0 .. 20,0000%00:00 (00:00)
302 Vampire of the Sands Jul 17, 2015 $4.9936% (73%)20,000 .. 50,0000%00:00 (00:00)
303 AirMech Command Mar 8, 2017 $19.9936% (73%)0 .. 20,0000%00:00 (00:00)
304 FIVE: Champions of Canaan Sep 27, 2016 $3.99N/A (N/A)0 .. 20,0000%00:00 (00:00)
305 FEIST Jul 23, 2015 $9.9936% (73%/65%)20,000 .. 50,0000%00:00 (00:00)
306 Divinity: Dragon Commander Aug 6, 2013 $39.9936% (73%)200,000 .. 500,0000%00:00 (00:00)
307 Smithy Jun 3, 2016 $0.51N/A (N/A)50,000 .. 100,0000.4%04:03 (01:21)
308 Gold Rush! Anniversary Nov 7, 2014 $5.99N/A (N/A)100,000 .. 200,0000%00:00 (00:00)
309 Sid Meier’s Ace Patrol Aug 27, 2013 $4.9936% (73%)500,000 .. 1,000,0000.19%00:01 (00:00)
310 Phoning Home Feb 7, 2017 $19.9934% (72%/61%)20,000 .. 50,0000%00:00 (00:00)
311 Lost Planet: Extreme Condition Jun 26, 2007 $14.9934% (72%/66%)200,000 .. 500,0000%00:00 (00:00)
312 Airship Dragoon Aug 26, 2014 $19.99N/A (N/A)0 .. 20,0000%00:00 (00:00)
313 Civil War: Battle of Petersburg Feb 8, 2017 $0.9934% (72%)0 .. 20,0000%00:00 (00:00)
314 Pike and Shot : Campaigns Aug 13, 2015 $39.9934% (72%)0 .. 20,0000%00:00 (00:00)
315 Wildlife Park 2 - Crazy Zoo Mar 30, 2007 $3.99N/A (N/A)0 .. 20,0000%00:00 (00:00)
316 LEGO Indiana Jones 2: The Adventure Continues Feb 18, 2010 $19.9934% (72%/66%)50,000 .. 100,0000%00:00 (00:00)
317 Auro: A Monster-Bumping Adventure Apr 13, 2016 $6.99N/A (N/A)0 .. 20,0000%00:00 (00:00)
318 Heroes of Arca Feb 16, 2017 Free34% (72%)0 .. 20,0000%00:00 (00:00)
319 Pongo May 11, 2015 $0.9934% (72%)50,000 .. 100,0000.64%04:36 (01:32)
320 Codex of Victory Mar 16, 2017 $14.9934% (72%)0 .. 20,0000%00:00 (00:00)
321 Fatal Fight Jun 10, 2016 $2.99N/A (N/A)0 .. 20,0000%00:00 (00:00)
322 Disney Planes Aug 6, 2013 $19.99N/A (N/A)0 .. 20,0000%00:00 (00:00)
323 Deadnaut Nov 27, 2014 $9.9934% (72%)0 .. 20,0000%00:00 (00:00)
324 VRZ: Torment May 18, 2017 $5.9934% (72%)0 .. 20,0000%00:00 (00:00)
325 King Arthur - The Role-playing Wargame Nov 24, 2009 $9.9934% (72%)200,000 .. 500,0000%00:00 (00:00)
326 Wyv and Keep: The Temple of the Lost Idol Aug 8, 2014 $14.99N/A (N/A)20,000 .. 50,0000%00:00 (00:00)
327 Elliot Quest Nov 10, 2014 $9.9934% (72%)20,000 .. 50,0000%00:00 (00:00)
328 Rise & Shine Jan 13, 2017 $14.9934% (72%)20,000 .. 50,0000%00:00 (00:00)
329 Elven Legacy Apr 7, 2009 $4.9934% (72%/71%)50,000 .. 100,0000%00:00 (00:00)
330 Cast of the Seven Godsends - Redux Jul 20, 2015 $9.9934% (72%)20,000 .. 50,0000%00:00 (00:00)
331 Pick a Hero Jun 9, 2016 $0.99N/A (N/A)0 .. 20,0000%00:00 (00:00)
332 There Came an Echo Feb 24, 2015 $14.9933% (71%/58%)20,000 .. 50,0000%00:00 (00:00)
333 Warp Mar 21, 2012 $9.9933% (71%)20,000 .. 50,0000%00:00 (00:00)
334 The Last Federation Apr 18, 2014 $19.9933% (71%/72%)50,000 .. 100,0000%00:00 (00:00)
335 Sengoku Jidai: Shadow of the Shogun May 19, 2016 $29.9933% (71%/85%)0 .. 20,0000%00:00 (00:00)
336 Zoo Empire Sep 3, 2015 $6.99N/A (N/A/59%)0 .. 20,0000%00:00 (00:00)
337 Tom Clancy's EndWar Feb 25, 2009 $9.9933% (71%/68%)50,000 .. 100,0001.1%10:30 (03:30)
338 A.R.E.S.: Extinction Agenda Jan 20, 2011 $0.9933% (71%/68%)100,000 .. 200,0000%00:00 (00:00)
339 Cross of the Dutchman Sep 10, 2015 $8.9933% (71%/59%)20,000 .. 50,0000%00:00 (00:00)
340 rooMaze Mar 3, 2017 $1.1933% (71%)100,000 .. 200,0000%00:00 (00:00)
341 REDCON Apr 22, 2016 $5.9933% (71%)0 .. 20,0005.56%01:01 (00:20)
342 Banzai Escape Feb 29, 2016 $5.9933% (71%)20,000 .. 50,0000%00:00 (00:00)
343 Strategy & Tactics: Wargame Collection Apr 22, 2016 $9.9931% (70%)20,000 .. 50,0000.83%00:01 (00:00)
344 Pigmentone Jul 8, 2016 $1.99N/A (N/A)0 .. 20,0003.51%03:16 (01:56)
345 Revolution Under Siege Gold Jul 2, 2015 $24.9931% (70%)0 .. 20,0000%00:00 (00:00)
346 Brigade E5: New Jagged Union Oct 17, 2006 $3.99N/A (N/A/41%)0 .. 20,0000%00:00 (00:00)
347 BitMaster Oct 12, 2016 $1.7931% (70%)200,000 .. 500,0000%00:00 (00:00)
348 Spud's Quest Jul 31, 2014 $7.99N/A (N/A)0 .. 20,0000%00:00 (00:00)
349 Panzer Tactics HD May 22, 2014 $9.9930% (69%/69%)20,000 .. 50,0000%00:00 (00:00)
350 The Nightmare Cooperative Jul 16, 2014 $4.99N/A (N/A)50,000 .. 100,0000%00:00 (00:00)
351 Jagged Alliance 2 - Wildfire Mar 8, 2004 $6.9930% (69%)500,000 .. 1,000,0000.84%06:07 (07:05)
352 Space Colony: Steam Edition Apr 30, 2015 $14.9930% (69%/74%)20,000 .. 50,0001.23%03:09 (01:03)
353 Sol 0: Mars Colonization Jan 15, 2016 $3.9930% (69%)20,000 .. 50,0000%00:00 (00:00)
354 Incandescent Jun 30, 2015 $0.9930% (69%)20,000 .. 50,0000%00:00 (00:00)
355 Lux Delux May 1, 2015 $9.9930% (69%)20,000 .. 50,0000%00:00 (00:00)
356 8-Bit Commando Jul 27, 2011 $2.9930% (69%)50,000 .. 100,0000%00:00 (00:00)
357 Collapse Sep 25, 2008 $19.9930% (69%)50,000 .. 100,0000%00:00 (00:00)
358 Little King's Story Aug 5, 2016 $19.9930% (69%/62%)0 .. 20,0000%00:00 (00:00)
359 The Superfluous May 19, 2017 $4.99N/A (N/A)0 .. 20,0000%00:00 (00:00)
360 ManaCollect Apr 17, 2015 $6.99N/A (N/A)0 .. 20,0000%00:00 (00:00)
361 Bedlam Oct 13, 2015 $12.9928% (68%/54%)100,000 .. 200,0000%00:00 (00:00)
362 Warrior Kings Apr 13, 2002 $9.99N/A (N/A/73%)20,000 .. 50,0005.88%00:01 (00:00)
363 FIVE: Guardians of David Nov 24, 2015 $9.9928% (68%/66%)20,000 .. 50,0000%00:00 (00:00)
364 The Hive Aug 25, 2016 $9.9928% (68%)20,000 .. 50,0000%00:00 (00:00)
365 Royal Defense Nov 6, 2014 $4.9928% (68%)50,000 .. 100,0000%00:00 (00:00)
366 The Living Dungeon Nov 2, 2015 $9.99N/A (N/A)0 .. 20,0000%00:00 (00:00)
367 YAIBA: NINJA GAIDEN Z Mar 21, 2014 $29.9928% (68%/49%)20,000 .. 50,0000%00:00 (00:00)
368 Scourge of War: Waterloo Nov 19, 2015 $49.9928% (68%)0 .. 20,0000%00:00 (00:00)
369 Guns n Zombies Oct 30, 2014 $7.9928% (68%)100,000 .. 200,0000.82%02:02 (01:20)
370 Othello Aug 5, 2016 $9.9928% (68%)0 .. 20,0000%00:00 (00:00)
371 Stonerid Dec 18, 2013 $4.9926% (67%)20,000 .. 50,0000.69%00:02 (00:00)
372 Chainsaw Warrior Oct 7, 2013 $4.9926% (67%)100,000 .. 200,0000%00:00 (00:00)
373 Survivor Squad: Gauntlets Nov 16, 2015 $4.9926% (67%)20,000 .. 50,0000%00:00 (00:00)
374 March of the Eagles Feb 18, 2013 $19.9926% (67%/71%)50,000 .. 100,0000%00:00 (00:00)
375 Toren May 11, 2015 $9.9926% (67%/57%)50,000 .. 100,0001.07%03:29 (02:19)
376 Toy Odyssey: The Lost and Found Sep 20, 2016 $14.9926% (67%/66%)20,000 .. 50,0000.92%02:11 (01:27)
377 Space Food Truck Mar 25, 2016 $9.9926% (67%)20,000 .. 50,0005.88%14:36 (04:52)
378 Kill The Plumber Dec 31, 2015 $4.9926% (67%)0 .. 20,0000%00:00 (00:00)
379 Zafehouse: Diaries Sep 6, 2013 $1.9926% (67%)50,000 .. 100,0000%00:00 (00:00)
380 Infinity Runner Jul 14, 2014 $6.9926% (67%/56%)0 .. 20,0000%00:00 (00:00)
381 Warhammer 40,000: Armageddon - Da Orks Aug 18, 2016 $19.99N/A (N/A)0 .. 20,0000%00:00 (00:00)
382 Sky To Fly: Faster Than Wind Mar 25, 2016 $3.99N/A (N/A)0 .. 20,0000%00:00 (00:00)
383 RISK: Factions Mar 8, 2011 $9.9925% (66%/77%)50,000 .. 100,0001.45%09:23 (03:07)
384 Urban Pirate Jun 17, 2016 $6.99N/A (N/A)0 .. 20,0000%00:00 (00:00)
385 Scourge: Outbreak Apr 2, 2014 $7.9925% (66%)100,000 .. 200,0000%00:00 (00:00)
386 Sengoku Sep 15, 2011 $9.9925% (66%/70%)100,000 .. 200,0000.69%02:33 (00:51)
387 1775: Rebellion Sep 29, 2016 $24.99N/A (N/A)0 .. 20,0004.17%01:18 (00:59)
388 Quick Slick Deadly Sep 21, 2015 $1.99N/A (N/A)20,000 .. 50,0000%00:00 (00:00)
389 1849 May 8, 2014 $14.9925% (66%)20,000 .. 50,0000%00:00 (00:00)
390 Zombie City Defense 2 Aug 19, 2016 $9.9925% (66%)0 .. 20,0000%00:00 (00:00)
391 Fair Strike Apr 23, 2015 $3.99N/A (N/A/56%)0 .. 20,0008.33%18:17 (06:05)
392 Commander Cool 2 Dec 17, 2015 $2.99N/A (N/A)20,000 .. 50,0002%02:00 (01:12)
393 Nomad Fleet Apr 19, 2016 $9.9925% (66%)20,000 .. 50,0000%00:00 (00:00)
394 Alea Jacta Est Sep 27, 2012 $24.99N/A (N/A)20,000 .. 50,0000%00:00 (00:00)
395 Mad Combat Marines Jul 13, 2016 $0.9925% (66%)20,000 .. 50,0000%00:00 (00:00)
396 Assassin’s Creed Chronicles: India Jan 12, 2016 $9.9925% (66%)50,000 .. 100,0000%00:00 (00:00)
397 Zombie Camp Jul 31, 2016 $1.99N/A (N/A)0 .. 20,0000%00:00 (00:00)
398 Disney Pirates of the Caribbean: At Worlds End May 22, 2007 $19.9924% (65%)0 .. 20,0000%00:00 (00:00)
399 The Seven Years War (1756-1763) Oct 30, 2015 $4.9924% (65%)0 .. 20,0000%00:00 (00:00)
400 7th Legion Jan 1, 1997 $6.99N/A (N/A)20,000 .. 50,0000%00:00 (00:00)
401 Theatre of War 2: Africa 1943 Apr 24, 2009 $4.9924% (65%/63%)100,000 .. 200,0000%00:00 (00:00)
402 Zombie Tycoon 2: Brainhov's Revenge Dec 9, 2013 $4.9924% (65%)50,000 .. 100,0000%00:00 (00:00)
403 Marauder Sep 10, 2009 $1.9924% (65%)50,000 .. 100,0002.13%00:05 (00:01)
404 Ground Breakers Jun 15, 2016 $4.99N/A (N/A)0 .. 20,0000%00:00 (00:00)
405 Men of War: Condemned Heroes Apr 12, 2012 $7.9924% (65%/57%)100,000 .. 200,0000%00:00 (00:00)
406 Jagged Alliance: Crossfire Aug 24, 2012 $14.9923% (64%/63%)100,000 .. 200,0000%00:00 (00:00)
407 Warlock 2: The Exiled Apr 10, 2014 $19.9923% (64%/73%)50,000 .. 100,0000%00:00 (00:00)
408 Zoo Rampage Jul 9, 2014 $3.9923% (64%)0 .. 20,0000%00:00 (00:00)
409 Revenge of Roger Rouge Apr 22, 2016 $0.99N/A (N/A)20,000 .. 50,0000%00:00 (00:00)
410 Frozen Synapse Prime Nov 14, 2014 $24.9923% (64%/83%)100,000 .. 200,0000.71%01:17 (00:50)
411 Kaiju-A-GoGo Apr 23, 2015 $9.9923% (64%)20,000 .. 50,0000%00:00 (00:00)
412 Hunters Of The Dead Sep 4, 2014 $4.9923% (64%)20,000 .. 50,0000%00:00 (00:00)
413 Link Apr 22, 2016 $4.99N/A (N/A)0 .. 20,0000%00:00 (00:00)
414 Theatre of War 2: Kursk 1943 Mar 9, 2010 $4.9923% (64%)50,000 .. 100,0000.91%01:37 (00:32)
415 Devil's Dare 悪魔の挑戦 Oct 21, 2014 $12.9923% (64%)20,000 .. 50,0000%00:00 (00:00)
416 Beasts Battle Jun 15, 2016 $1.99N/A (N/A)0 .. 20,0000%00:00 (00:00)
417 Overruled! Sep 15, 2015 $1.94N/A (N/A)20,000 .. 50,0000%00:00 (00:00)
418 A Game of Dwarves Oct 23, 2012 $9.9921% (63%/60%)50,000 .. 100,0000%00:00 (00:00)
419 Pixel Boy and the Ever Expanding Dungeon May 30, 2014 $0.9921% (63%)20,000 .. 50,0000%00:00 (00:00)
420 Battle Worlds: Kronos Nov 4, 2013 $19.9921% (63%/71%)20,000 .. 50,0000%00:00 (00:00)
421 Double Dragon IV Jan 30, 2017 $6.9921% (63%/50%)0 .. 20,00011.11%12:05 (06:02)
422 Port Royale 2 Apr 30, 2004 $4.9921% (63%/75%)50,000 .. 100,0000%00:00 (00:00)
423 Will Fight for Food: Super Actual Sellout: Game of the Hour Apr 22, 2015 $5.99N/A (N/A)0 .. 20,0000%00:00 (00:00)
424 Malebolgia May 6, 2015 $12.9921% (63%)0 .. 20,0000%00:00 (00:00)
425 Platypus II Mar 17, 2007 $6.9921% (63%)200,000 .. 500,0000.13%00:03 (00:01)
426 The Few Jun 18, 2014 $7.9921% (63%)20,000 .. 50,0000%00:00 (00:00)
427 Goblin Defenders: Steel‘n’ Wood Nov 23, 2015 $2.99N/A (N/A)20,000 .. 50,0000%00:00 (00:00)
428 UnSummoning: the Spectral Horde Dec 21, 2015 FreeN/A (N/A)0 .. 20,0000%00:00 (00:00)
429 Hyperspace Pinball Sep 30, 2015 $2.99N/A (N/A)0 .. 20,0000%00:00 (00:00)
430 Disney Epic Mickey 2: The Power of Two Nov 18, 2012 $19.9920% (62%)20,000 .. 50,0003.7%00:37 (00:12)
431 To End All Wars Aug 29, 2014 $39.9920% (62%/71%)0 .. 20,0000%00:00 (00:00)
432 Sorcerer King: Rivals Sep 22, 2016 $14.9920% (62%)20,000 .. 50,0000%00:00 (00:00)
433 Spirit of War Mar 12, 2015 $9.99N/A (N/A)20,000 .. 50,0000%00:00 (00:00)
434 My Super Tower 2 Jan 27, 2017 $0.4920% (62%)0 .. 20,0000%00:00 (00:00)
435 SPACECOM Sep 17, 2014 $1.4920% (62%/68%)100,000 .. 200,0001.87%02:00 (02:16)
436 Desert Ashes Nov 10, 2014 $4.99N/A (N/A)20,000 .. 50,0001.01%00:01 (00:00)
437 Rise: Battle Lines Nov 17, 2015 $1.99N/A (N/A)0 .. 20,0000%00:00 (00:00)
438 Purgatory Jun 22, 2016 $0.9919% (61%)200,000 .. 500,0000.06%03:31 (01:10)
439 Supreme Ruler: Cold War Jul 29, 2011 $9.9919% (61%/63%)20,000 .. 50,0000%00:00 (00:00)
440 Flashback Oct 1, 2013 $9.9919% (61%)20,000 .. 50,0000%00:00 (00:00)
441 Freight Tycoon Inc. Aug 15, 2007 $4.9919% (61%)20,000 .. 50,0000%00:00 (00:00)
442 4089: Ghost Within Jan 9, 2015 $5.9919% (61%)0 .. 20,0000%00:00 (00:00)
443 Disciples III - Renaissance Steam Special Edition Jul 16, 2010 $14.9919% (61%/56%)100,000 .. 200,0000%00:00 (00:00)
444 War, the Game Jan 12, 2015 $6.9919% (61%/65%)20,000 .. 50,0000%00:00 (00:00)
445 Men of War: Vietnam Sep 8, 2011 $7.9919% (61%/68%)100,000 .. 200,0000%00:00 (00:00)
446 Gnumz: Masters of Defense Dec 21, 2015 $4.99N/A (N/A)20,000 .. 50,0000%00:00 (00:00)
447 Legions of Steel Jul 16, 2015 $19.99N/A (N/A/64%)0 .. 20,0000%00:00 (00:00)
448 Spice Road Apr 24, 2014 $19.99N/A (N/A)0 .. 20,0000%00:00 (00:00)
449 Bombshell Jan 29, 2016 $34.9919% (61%)20,000 .. 50,0007.23%02:12 (02:35)
450 Call of Duty: Black Ops - Mac Edition Sep 27, 2012 $19.9919% (61%)50,000 .. 100,0000%00:00 (00:00)
451 BattleLore: Command Mar 31, 2015 $6.9918% (60%)0 .. 20,0000%00:00 (00:00)
452 Close Combat - Panthers in the Fog May 14, 2015 $39.9918% (60%)0 .. 20,0000%00:00 (00:00)
453 Defend Your Crypt Jul 21, 2016 $2.99N/A (N/A)0 .. 20,0000%00:00 (00:00)
454 Woolfe - The Red Hood Diaries Mar 17, 2015 $9.9918% (60%/55%)50,000 .. 100,0000.85%01:44 (00:34)
455 Hybrid Wars Sep 29, 2016 $6.9918% (60%/54%)0 .. 20,0000%00:00 (00:00)
456 NOBUNAGA'S AMBITION: Sphere of Influence - Ascension / 信長の野望・創造 戦国立志伝 Mar 23, 2016 $59.9918% (60%)100,000 .. 200,0000%00:00 (00:00)
457 Assault on Arnhem Mar 11, 2016 $9.99N/A (N/A)0 .. 20,0001.79%02:38 (00:52)
458 Merchants of Kaidan Nov 10, 2014 $14.9918% (60%)100,000 .. 200,0000.2%00:05 (00:01)
459 Prospekt Feb 18, 2016 $9.9917% (59%)20,000 .. 50,0000%00:00 (00:00)
460 Heavy Fire: Afghanistan Aug 15, 2014 $2.9917% (59%)20,000 .. 50,0000%00:00 (00:00)
461 Wanderlust Adventures Aug 10, 2015 $9.9917% (59%)20,000 .. 50,0000%00:00 (00:00)
462 Quarantine May 24, 2017 $9.9917% (59%)0 .. 20,0000%00:00 (00:00)
463 Code of Princess Apr 14, 2016 $14.9917% (59%/53%)0 .. 20,0007.14%02:40 (00:53)
464 Patrician IV - Steam Special Edition Sep 17, 2010 $14.9917% (59%/66%)100,000 .. 200,0000.45%00:01 (00:00)
465 E.T. Armies Mar 3, 2016 $14.9917% (59%/54%)0 .. 20,0000%00:00 (00:00)
466 Ninjahtic Mind Tricks Jul 16, 2015 $1.99N/A (N/A)0 .. 20,0000%00:00 (00:00)
467 Antisquad Oct 31, 2014 $5.9917% (59%)50,000 .. 100,0000%00:00 (00:00)
468 Battleplan: American Civil War Jul 4, 2014 $1.4917% (59%/66%)100,000 .. 200,0000.17%03:47 (01:15)
469 Armada 2526 Gold Edition Feb 28, 2013 $2.9917% (59%/66%)20,000 .. 50,0000%00:00 (00:00)
470 7 Grand Steps: What Ancients Begat Jun 7, 2013 $19.9917% (59%)100,000 .. 200,0000%00:00 (00:00)
471 Skyshine's BEDLAM Sep 16, 2015 $19.9917% (59%/67%)20,000 .. 50,0000%00:00 (00:00)
472 Woodle Tree 2: Worlds Sep 16, 2016 $3.9916% (58%)50,000 .. 100,0000.57%00:02 (00:00)
473 Colonial Conquest Jul 28, 2015 $9.9916% (58%)0 .. 20,0000%00:00 (00:00)
474 Cemetery Warrior 3 Feb 3, 2017 $0.9916% (58%)50,000 .. 100,0000%00:00 (00:00)
475 Prophour23 Oct 22, 2014 $9.99N/A (N/A)0 .. 20,0001.59%04:03 (01:21)
476 Check vs Mate Aug 16, 2012 $19.9916% (58%/69%)0 .. 20,0000%00:00 (00:00)
477 Life in Bunker Feb 25, 2016 $15.9916% (58%)0 .. 20,0000%00:00 (00:00)
478 Sir! I'd Like To Report A Bug! Oct 19, 2015 $1.99N/A (N/A)0 .. 20,0007.69%03:46 (01:15)
479 Gates of Horizon Dec 18, 2014 $9.9916% (58%)0 .. 20,0004.35%00:01 (00:00)
480 Ceres Oct 16, 2015 $2.9916% (58%/74%)0 .. 20,0000%00:00 (00:00)
481 DreamBreak Jul 21, 2016 $6.99N/A (N/A/46%)20,000 .. 50,0000%00:00 (00:00)
482 Unearthed: Trail of Ibn Battuta - Episode 1 - Gold Edition Jan 3, 2014 $4.9915% (57%)20,000 .. 50,0000%00:00 (00:00)
483 Horizon Feb 6, 2014 $7.4914% (56%/58%)50,000 .. 100,0000%00:00 (00:00)
484 Stay Dead Evolution Feb 4, 2015 $5.99N/A (N/A)20,000 .. 50,0000%00:00 (00:00)
485 Delve Deeper Sep 24, 2010 $4.9914% (56%)50,000 .. 100,0000%00:00 (00:00)
486 Abalone Apr 23, 2014 $6.99N/A (N/A)0 .. 20,0000%00:00 (00:00)
487 Super Helmets on Fire DX Ultra Edition Plus Alpha Feb 15, 2016 $0.99N/A (N/A)0 .. 20,0000%00:00 (00:00)
488 Crazy Forest Jul 6, 2016 $4.9914% (56%)100,000 .. 200,0000%00:00 (00:00)
489 Rise of Venice Sep 27, 2013 $19.9914% (56%/66%)50,000 .. 100,0001.19%00:02 (00:00)
490 Story Of the Survivor Feb 16, 2016 $4.99N/A (N/A)50,000 .. 100,0000%00:00 (00:00)
491 VR Journey Dec 15, 2016 $2.99N/A (N/A)20,000 .. 50,0000.68%02:03 (00:41)
492 reconquest Dec 16, 2016 $11.9913% (55%)0 .. 20,0000%00:00 (00:00)
493 Adventure World Aug 2, 2016 $4.99N/A (N/A)0 .. 20,0000%00:00 (00:00)
494 Pain Train Jan 11, 2017 $0.9913% (55%)50,000 .. 100,0000.49%01:45 (00:35)
495 Urja Jan 9, 2015 $9.9913% (54%)20,000 .. 50,0000%00:00 (00:00)
496 BC Kings Sep 15, 2008 $4.9913% (54%)20,000 .. 50,0000%00:00 (00:00)
497 Wickland Nov 14, 2014 $0.9913% (54%)50,000 .. 100,0000%00:00 (00:00)
498 RESCUE 2: Everyday Heroes Jun 3, 2015 $19.9913% (54%)20,000 .. 50,0000%00:00 (00:00)
499 Crusaders: Thy Kingdom Come Oct 8, 2009 $9.99N/A (N/A)0 .. 20,0000%00:00 (00:00)
500 Castle Werewolf 3D Feb 7, 2017 $2.99N/A (N/A)50,000 .. 100,0000%00:00 (00:00)
501 Smugglers 5 Apr 11, 2014 $9.9912% (53%)20,000 .. 50,0000%00:00 (00:00)
502 Tic-Toc-Tower Sep 28, 2015 $2.99N/A (N/A)0 .. 20,0000%00:00 (00:00)
503 MDK2 HD Jul 30, 2012 $14.9912% (53%/73%)0 .. 20,0000%00:00 (00:00)
504 Armada 2526 Jun 10, 2010 $2.24N/A (N/A/66%)0 .. 20,0000%00:00 (00:00)
505 Meridian: Squad 22 Aug 11, 2016 $14.99N/A (N/A)0 .. 20,0000%00:00 (00:00)
506 Grim Seventh Jan 20, 2017 FreeN/A (N/A)0 .. 20,0000%00:00 (00:00)
507 MinosMaze - The Minotaur's Labyrinth May 1, 2017 $4.99N/A (N/A)0 .. 20,0000%00:00 (00:00)
508 The Stalin Subway Oct 5, 2006 $3.9911% (52%)20,000 .. 50,0000%00:00 (00:00)
509 Biodrone Battle Jul 16, 2015 $1.9911% (51%)100,000 .. 200,0000%00:00 (00:00)
510 Meridian: New World Apr 4, 2014 $6.9911% (51%/43%)100,000 .. 200,0000.6%03:32 (01:10)
511 Dusty Revenge:Co-Op Edition Feb 17, 2014 $14.9911% (51%)50,000 .. 100,0000%00:00 (00:00)
512 Royal Bounty HD Aug 10, 2015 $2.9911% (51%)0 .. 20,0004.55%00:01 (00:00)
513 Nightside Aug 6, 2015 $4.9911% (51%)20,000 .. 50,0000%00:00 (00:00)
514 Chronostorm: Siberian Border Nov 20, 2015 $0.62N/A (N/A)0 .. 20,0000%00:00 (00:00)
515 Guncraft Aug 9, 2013 $14.9910% (50%/73%)100,000 .. 200,0000%00:00 (00:00)
516 Defence to death May 11, 2017 $1.99N/A (N/A)50,000 .. 100,0000.73%04:23 (02:57)
517 Scapeland Mar 31, 2016 $3.99N/A (N/A)0 .. 20,0000%00:00 (00:00)
518 Aggression: Europe Under Fire May 10, 2007 $0.9910% (50%)50,000 .. 100,0000%00:00 (00:00)
519 No Pineapple Left Behind Feb 18, 2016 $6.99N/A (N/A/59%)0 .. 20,0000%00:00 (00:00)
520 Albedo: Eyes from Outer Space Apr 10, 2015 $14.9910% (50%/66%)50,000 .. 100,0000%00:00 (00:00)
521 Kidnapped Aug 4, 2015 $2.999% (49%)100,000 .. 200,0000.26%00:41 (00:13)
522 Synonymy Dec 12, 2014 $1.99N/A (N/A)0 .. 20,0000%00:00 (00:00)
523 Marvel: Ultimate Alliance 2 Jul 26, 2016 N/A9% (48%)0 .. 20,0002.56%00:10 (00:03)
524 Star Traders: 4X Empires Nov 18, 2014 $9.99N/A (N/A)0 .. 20,0004.55%02:18 (00:46)
525 Rubber and Lead Sep 4, 2015 $4.99N/A (N/A)20,000 .. 50,0000%00:00 (00:00)
526 Odd||Even Apr 6, 2016 $0.99N/A (N/A)20,000 .. 50,0000%00:00 (00:00)
527 Hero Generations Apr 10, 2015 $5.998% (47%)0 .. 20,0000%00:00 (00:00)
528 Blasting Agent: Ultimate Edition Aug 17, 2016 $2.99N/A (N/A)0 .. 20,0000%00:00 (00:00)
529 Z Steel Soldiers Aug 1, 2014 $12.998% (47%)50,000 .. 100,0000.76%04:16 (01:50)
530 Hell Nov 13, 2014 $29.99N/A (N/A)0 .. 20,0000%00:00 (00:00)
531 Disposable Heroes Mar 22, 2016 $4.99N/A (N/A)20,000 .. 50,0000%00:00 (00:00)
532 Aegis Oct 6, 2016 $2.99N/A (N/A)0 .. 20,0000%00:00 (00:00)
533 The Stalin Subway: Red Veil Oct 5, 2006 $2.998% (47%)50,000 .. 100,0000%00:00 (00:00)
534 World War 2: Time of Wrath Jun 15, 2009 $4.99N/A (N/A)20,000 .. 50,0000%00:00 (00:00)
535 Pride of Nations Jun 8, 2011 $19.998% (46%/70%)20,000 .. 50,0000%00:00 (00:00)
536 Megamagic: Wizards of the Neon Age Apr 20, 2016 $9.99N/A (N/A/67%)20,000 .. 50,0000.95%02:03 (00:41)
537 PeriAreion Feb 19, 2015 $5.99N/A (N/A)0 .. 20,0000%00:00 (00:00)
538 Crossfire: Dungeons May 21, 2015 $3.998% (46%)0 .. 20,0000%00:00 (00:00)
539 HitBox Jan 30, 2017 Free8% (46%)0 .. 20,0001.85%00:09 (00:03)
540 Magic Quest May 6, 2016 $1.99N/A (N/A)50,000 .. 100,0000%00:00 (00:00)
541 ALONE IN SPACE Feb 22, 2016 $9.998% (46%)0 .. 20,0000%00:00 (00:00)
542 Carrier Command: Gaea Mission Sep 28, 2012 $32.998% (46%/60%)200,000 .. 500,0000.42%00:48 (00:16)
543 The Campaign Series: Fall Weiss May 30, 2014 $14.99N/A (N/A)20,000 .. 50,0000%00:00 (00:00)
544 Impire Feb 14, 2013 $19.997% (45%/45%)100,000 .. 200,0000%00:00 (00:00)
545 Skyward Collapse May 23, 2013 $4.997% (45%/64%)100,000 .. 200,0000%00:00 (00:00)
546 Redemption: Saints And Sinners Nov 18, 2016 $0.997% (44%)50,000 .. 100,0000.33%05:02 (01:40)
547 Commander: Conquest of the Americas Jul 30, 2010 $9.997% (44%/68%)50,000 .. 100,0000%00:00 (00:00)
548 Island Defense Jul 23, 2015 $1.99N/A (N/A)50,000 .. 100,0000.3%00:01 (00:00)
549 The Bluecoats: North vs South May 10, 2012 $4.997% (44%)50,000 .. 100,0000%00:00 (00:00)
550 Avaris 2: The Return of the Empress Dec 14, 2015 $7.99N/A (N/A)0 .. 20,0000%00:00 (00:00)
551 Rulers of Nations Jul 16, 2014 $19.997% (43%/63%)0 .. 20,0000%00:00 (00:00)
552 Dungeons Feb 10, 2011 $9.997% (43%/65%)200,000 .. 500,0000%00:00 (00:00)
553 Vendetta - Curse of Raven's Cry Nov 20, 2015 $29.997% (43%)0 .. 20,0004.88%05:12 (03:27)
554 The Entente Gold Aug 11, 2003 $1.997% (43%)50,000 .. 100,0000%00:00 (00:00)
555 Samudai Feb 9, 2015 $2.99N/A (N/A)20,000 .. 50,0000%00:00 (00:00)
556 Sword of the Stars II: Enhanced Edition Nov 30, 2012 $19.996% (42%/65%)100,000 .. 200,0000.52%00:47 (00:15)
557 Burstfire Sep 24, 2015 N/A6% (42%)50,000 .. 100,0000%00:00 (00:00)
558 Nux Dec 26, 2006 $6.99N/A (N/A)100,000 .. 200,0000%00:00 (00:00)
559 Hydraulic Empire Jul 31, 2015 $7.99N/A (N/A)0 .. 20,0000%00:00 (00:00)
560 Heavy Fire: Shattered Spear Oct 23, 2015 $3.99N/A (N/A)0 .. 20,0000%00:00 (00:00)
561 Strategic War in Europe Mar 21, 2014 $14.995% (40%)20,000 .. 50,0001.54%03:21 (02:14)
562 Knight Adventure Oct 15, 2015 $0.99N/A (N/A)50,000 .. 100,0000%00:00 (00:00)
563 Pain Train 2 Mar 16, 2017 $0.695% (40%)0 .. 20,0001.39%03:02 (01:00)
564 The Kings' Crusade Oct 8, 2010 $9.995% (40%/71%)50,000 .. 100,0000%00:00 (00:00)
565 Dark Matter Oct 17, 2013 $1.495% (39%)0 .. 20,0000%00:00 (00:00)
566 Wave of Darkness Nov 5, 2015 $29.99N/A (N/A)0 .. 20,0002.22%02:31 (00:50)
567 Mechs & Mercs: Black Talons Jan 9, 2015 $9.995% (39%)0 .. 20,0004.17%01:46 (00:35)
568 Dungeons - The Dark Lord Sep 27, 2011 $19.995% (39%/72%)100,000 .. 200,0000%00:00 (00:00)
569 Risk Jun 10, 2013 $9.995% (39%)20,000 .. 50,0000%00:00 (00:00)
570 Gratuitous Space Battles 2 Apr 16, 2015 $9.995% (39%)20,000 .. 50,0000%00:00 (00:00)
571 Devils & Demons Oct 6, 2015 $9.99N/A (N/A)20,000 .. 50,0000%00:00 (00:00)
572 Lost in Paradise Aug 20, 2015 $2.99N/A (N/A)20,000 .. 50,0001.11%00:03 (00:01)
573 Infection: Humanity's Last Gasp May 26, 2016 $9.99N/A (N/A)0 .. 20,0001.3%00:54 (00:18)
574 Control Craft 2 Feb 15, 2016 $2.99N/A (N/A)0 .. 20,0001.35%05:58 (01:59)
575 Dead But Alive! Southern England Oct 2, 2015 $14.99N/A (N/A)0 .. 20,0000%00:00 (00:00)
576 Stellar Impact Apr 12, 2012 $9.994% (37%/74%)50,000 .. 100,0000%00:00 (00:00)
577 Tiamat X May 29, 2015 $1.99N/A (N/A)50,000 .. 100,0000%00:00 (00:00)
578 Blue Sheep Mar 31, 2016 $1.99N/A (N/A)0 .. 20,0000%00:00 (00:00)
579 Sim Junta Aug 18, 2015 $0.494% (35%)0 .. 20,0000%00:00 (00:00)
580 Urban Empire Jan 20, 2017 $29.994% (35%/62%)50,000 .. 100,0002.22%04:36 (01:32)
581 Shadows of War Sep 19, 2014 $2.994% (35%)20,000 .. 50,0000%00:00 (00:00)
582 Fallen: A2P Protocol Aug 14, 2015 $9.993% (34%)20,000 .. 50,0000%00:00 (00:00)
583 CTU: Counter Terrorism Unit Apr 22, 2016 $4.99N/A (N/A)0 .. 20,0000%00:00 (00:00)
584 Disciples III - Resurrection Oct 11, 2011 $14.993% (34%/63%)100,000 .. 200,0000%00:00 (00:00)
585 Into the Void Dec 4, 2015 $4.99N/A (N/A)20,000 .. 50,0000%00:00 (00:00)
586 Arma Tactics Oct 1, 2013 $8.993% (34%/47%)200,000 .. 500,0000%00:00 (00:00)
587 Ranger of the jungle Jul 18, 2016 $3.99N/A (N/A)0 .. 20,0000%00:00 (00:00)
588 Kick-Ass 2 Aug 15, 2014 $19.993% (33%)20,000 .. 50,0000%00:00 (00:00)
589 Jagged Alliance Flashback Oct 21, 2014 $19.993% (33%)20,000 .. 50,0000%00:00 (00:00)
590 Ku: Shroud of the Morrigan Mar 17, 2014 $4.99N/A (N/A)20,000 .. 50,0000%00:00 (00:00)
591 Psichodelya Aug 8, 2014 $1.99N/A (N/A)50,000 .. 100,0000.3%04:18 (01:26)
592 Evopollution Apr 23, 2014 $4.993% (31%)0 .. 20,0000%00:00 (00:00)
593 A Game of Thrones - Genesis Sep 29, 2011 $9.993% (31%)100,000 .. 200,0000%00:00 (00:00)
594 Zombie Zoeds May 20, 2015 $2.993% (31%)200,000 .. 500,0005.26%04:33 (01:31)
595 Ground Pounders Jul 15, 2014 $4.99N/A (N/A)0 .. 20,0000%00:00 (00:00)
596 Power of Defense Aug 4, 2010 $9.99N/A (N/A)0 .. 20,0000%00:00 (00:00)
597 Robotex Nov 18, 2014 $4.992% (30%)100,000 .. 200,0000%00:00 (00:00)
598 Defenders of Time Nov 4, 2014 N/AN/A (N/A/55%)0 .. 20,0000%00:00 (00:00)
599 Tank Operations: European Campaign Nov 22, 2013 $19.992% (29%)20,000 .. 50,0000%00:00 (00:00)
600 Zombies on a Plane Mar 25, 2016 $4.99N/A (N/A)0 .. 20,0000%00:00 (00:00)
601 Solar Shifter EX Sep 11, 2015 $4.99N/A (N/A)20,000 .. 50,0000%00:00 (00:00)
602 Gridberd Sep 7, 2015 $6.99N/A (N/A)200,000 .. 500,0000.24%03:58 (02:38)
603 One Star Apr 17, 2017 $2.992% (25%)50,000 .. 100,0000.57%00:03 (00:02)
604 Hard Truck Apocalypse: Arcade / Ex Machina: Arcade May 24, 2007 $4.992% (25%)20,000 .. 50,0001.43%01:18 (00:26)
605 APOX Jan 20, 2011 $14.991% (23%/48%)20,000 .. 50,0000%00:00 (00:00)
606 The Asskickers-Steam Edition Feb 6, 2015 $9.99N/A (N/A)0 .. 20,0000%00:00 (00:00)
607 Lords of the Black Sun Sep 12, 2014 $4.491% (21%)20,000 .. 50,0000%00:00 (00:00)
608 Gemini Wars Nov 2, 2012 $2.241% (20%/53%)20,000 .. 50,0000%00:00 (00:00)
609 Star Project Aug 4, 2016 $1.991% (19%)100,000 .. 200,0000%00:00 (00:00)
610 Human Extinction Simulator Jan 21, 2015 $19.99N/A (N/A)0 .. 20,0000%00:00 (00:00)
611 Tryst Sep 14, 2012 $14.99N/A (N/A/50%)0 .. 20,0000%00:00 (00:00)
612 Prison Tycoon 3: Lockdown Aug 1, 2007 $9.991% (17%)20,000 .. 50,0000%00:00 (00:00)
613 Once Bitten, Twice Dead! Jul 7, 2015 $4.99N/A (N/A)20,000 .. 50,0000%00:00 (00:00)
614 Citadels Jul 25, 2013 $14.991% (13%/20%)20,000 .. 50,0000%00:00 (00:00)
615 Bloodbath Jun 16, 2014 $14.99N/A (N/A)0 .. 20,0000%00:00 (00:00)
616 Magnetic By Nature Nov 10, 2014 $9.99N/A (N/A)20,000 .. 50,0000%00:00 (00:00)

Tags over time:

Access restricted.

This feature is only available to users with special access rights. Sorry.

If you want to proceed, you need to register or log in first and then back Steam Spy on Patreon. Look for Indie or Pro pledge.

Don't forget to use the same email as on Steam Spy!

Owners of this game also own:

Access restricted.

This feature is only available to users with special access rights. Sorry.

If you want to proceed, you need to register or log in first and then back Steam Spy on Patreon. Look for Indie or Pro pledge.

Don't forget to use the same email as on Steam Spy!

Playtime distribution:

Access restricted.

This feature is only available to users with special access rights. Sorry.

If you want to proceed, you need to register or log in first and then back Steam Spy on Patreon. Look for Indie or Pro pledge.

Don't forget to use the same email as on Steam Spy!

Playtime (2 weeks):

Access restricted.

This feature is only available to users with special access rights. Sorry.

If you want to proceed, you need to register or log in first and then back Steam Spy on Patreon. Look for Indie or Pro pledge.

Don't forget to use the same email as on Steam Spy!

User reviews:

Login required.

Please register or log in to see this information.